Time;durP1;ratioP1;P1;durP2;ratioP2;P2;SDS_P1;SDS_P2;PMS_P1;PMS_P2;Temp;Humidity;BMP_temperature;BMP_pressure;BME280_temperature;BME280_humidity;BME280_pressure;Samples;Min_cycle;Max_cycle;Signal;HPM_P1;HPM_P2
2023/06/19 00:01:58;;;;;;;28.27;11.05;;;563.60;2432.00;;;;;;4862155;29;20041;-71
2023/06/19 00:04:24;;;;;;;21.30;10.77;;;563.60;2432.00;;;;;;4879539;29;20033;-73
2023/06/19 00:06:50;;;;;;;15.27;9.48;;;563.60;2432.00;;;;;;4879383;29;20111;-71
2023/06/19 00:09:17;;;;;;;13.02;9.43;;;563.50;2432.00;;;;;;4879264;29;20543;-72
2023/06/19 00:11:42;;;;;;;13.88;9.68;;;563.50;2432.00;;;;;;4879025;29;20408;-71
2023/06/19 00:14:08;;;;;;;16.83;9.52;;;563.40;2432.00;;;;;;4879117;29;20060;-76
2023/06/19 00:16:34;;;;;;;20.33;10.00;;;563.40;2432.00;;;;;;4879299;29;20395;-71
2023/06/19 00:18:59;;;;;;;13.55;9.00;;;563.50;2432.00;;;;;;4881487;29;20036;-74
2023/06/19 00:21:25;;;;;;;17.13;9.80;;;563.40;2432.00;;;;;;4882987;29;20365;-71
2023/06/19 00:23:52;;;;;;;20.67;10.27;;;563.40;2432.00;;;;;;4882850;29;20029;-72
2023/06/19 00:26:22;;;;;;;16.40;9.65;;;563.40;2432.00;;;;;;4882731;29;20026;-72
2023/06/19 00:28:49;;;;;;;14.68;9.10;;;563.40;2432.00;;;;;;4883001;29;20059;-71
2023/06/19 00:31:16;;;;;;;11.70;8.40;;;563.50;2432.00;;;;;;4895802;29;20016;-70
2023/06/19 00:33:48;;;;;;;15.88;9.43;;;563.40;2432.00;;;;;;4886874;29;20031;-73
2023/06/19 00:36:15;;;;;;;14.45;9.57;;;563.20;2432.00;;;;;;4886168;29;20395;-73
2023/06/19 00:38:42;;;;;;;13.80;9.07;;;538.40;2406.40;;;;;;4890097;29;20449;-73
2023/06/19 00:41:08;;;;;;;15.93;10.02;;;538.10;2406.40;;;;;;4887158;29;20036;-71
2023/06/19 00:43:34;;;;;;;16.33;11.00;;;537.90;2406.40;;;;;;4889973;29;20040;-71
2023/06/19 00:46:01;;;;;;;13.52;9.30;;;537.90;2406.40;;;;;;4885266;29;20033;-74
2023/06/19 00:48:31;;;;;;;11.77;8.90;;;537.60;2406.40;;;;;;4886528;29;20051;-71
2023/06/19 00:50:57;;;;;;;13.35;9.13;;;537.70;2406.40;;;;;;4867306;29;20048;-71
2023/06/19 00:53:24;;;;;;;15.77;9.73;;;537.60;2406.40;;;;;;4887797;29;20076;-73
2023/06/19 00:55:54;;;;;;;13.20;9.43;;;537.70;2406.40;;;;;;4887163;29;20112;-71
2023/06/19 00:58:22;;;;;;;12.13;9.35;;;537.70;2406.40;;;;;;4886812;29;20096;-70
2023/06/19 01:00:49;;;;;;;15.13;10.32;;;512.90;2380.80;;;;;;4885853;29;20037;-76
2023/06/19 01:03:15;;;;;;;14.10;9.30;;;512.70;2380.80;;;;;;4884615;29;20040;-72
2023/06/19 01:05:42;;;;;;;15.40;10.27;;;512.60;2380.80;;;;;;4888541;29;20161;-71
2023/06/19 01:08:25;;;;;;;13.00;9.35;;;512.50;2380.80;;;;;;4884879;29;20122;-71
2023/06/19 01:10:58;;;;;;;12.23;9.57;;;512.30;2380.80;;;;;;4886197;29;20456;-71
2023/06/19 01:13:33;;;;;;;16.50;9.90;;;512.10;2380.80;;;;;;4886107;29;20052;-75
2023/06/19 01:15:59;;;;;;;14.05;9.70;;;512.00;2380.80;;;;;;4888583;29;20563;-74
2023/06/19 01:18:26;;;;;;;20.98;10.20;;;512.00;2380.80;;;;;;4887271;29;20487;-73
2023/06/19 01:20:52;;;;;;;14.57;9.27;;;487.30;2380.80;;;;;;4884823;29;20036;-70
2023/06/19 01:23:18;;;;;;;13.23;9.27;;;512.00;2380.80;;;;;;4887597;29;20036;-76
2023/06/19 01:25:45;;;;;;;14.57;9.30;;;512.00;2380.80;;;;;;4873275;29;20511;-73
2023/06/19 01:28:12;;;;;;;16.63;9.40;;;487.30;2380.80;;;;;;4888035;29;20058;-70
2023/06/19 01:30:42;;;;;;;15.55;9.32;;;512.00;2380.80;;;;;;4887414;29;20067;-71
2023/06/19 01:33:35;;;;;;;21.95;11.00;;;487.30;2380.80;;;;;;4883597;29;20060;-71
2023/06/19 01:36:03;;;;;;;14.05;10.13;;;487.10;2380.80;;;;;;4885016;29;20040;-72
2023/06/19 01:38:30;;;;;;;22.48;10.15;;;487.20;2380.80;;;;;;4887236;29;20424;-71
2023/06/19 01:40:59;;;;;;;18.77;10.40;;;487.30;2380.80;;;;;;4888120;29;20033;-71
2023/06/19 01:43:26;;;;;;;15.75;10.25;;;512.10;2380.80;;;;;;4885974;29;20025;-70
2023/06/19 01:45:52;;;;;;;17.88;9.52;;;512.20;2380.80;;;;;;4872489;29;20096;-72
2023/06/19 01:48:17;;;;;;;15.68;10.70;;;512.00;2380.80;;;;;;4889138;29;20036;-71
2023/06/19 01:50:48;;;;;;;21.27;10.57;;;487.20;2380.80;;;;;;4887534;29;20028;-73
2023/06/19 01:53:14;;;;;;;13.80;9.63;;;487.30;2380.80;;;;;;4884881;29;20488;-70
2023/06/19 01:55:40;;;;;;;19.70;10.10;;;487.30;2380.80;;;;;;4887402;29;20035;-74
2023/06/19 01:58:06;;;;;;;18.38;11.07;;;487.20;2380.80;;;;;;4868005;29;20029;-74
2023/06/19 02:00:35;;;;;;;16.17;9.65;;;487.30;2380.80;;;;;;4887243;29;20039;-70
2023/06/19 02:03:01;;;;;;;16.65;9.70;;;512.00;2380.80;;;;;;4889307;29;20501;-72
2023/06/19 02:05:27;;;;;;;17.45;10.70;;;512.10;2380.80;;;;;;4892016;29;20028;-72
2023/06/19 02:07:52;;;;;;;17.63;10.75;;;512.10;2380.80;;;;;;4883181;29;20433;-71
2023/06/19 02:10:18;;;;;;;20.40;10.70;;;512.00;2380.80;;;;;;4894160;29;20624;-71
2023/06/19 02:12:44;;;;;;;15.25;9.93;;;487.30;2380.80;;;;;;4887017;29;20033;-71
2023/06/19 02:15:10;;;;;;;21.52;11.70;;;487.10;2380.80;;;;;;4885681;29;20407;-71
2023/06/19 02:17:35;;;;;;;15.02;10.65;;;487.00;2380.80;;;;;;4885048;29;20028;-73
2023/06/19 02:20:01;;;;;;;14.10;10.63;;;486.90;2380.80;;;;;;4886168;29;20391;-71
2023/06/19 02:22:27;;;;;;;17.65;11.40;;;486.90;2380.80;;;;;;4885730;29;20505;-73
2023/06/19 02:24:53;;;;;;;17.67;11.43;;;486.80;2380.80;;;;;;4884223;29;20037;-71
2023/06/19 02:27:19;;;;;;;19.10;11.18;;;486.80;2380.80;;;;;;4885052;29;20120;-71
2023/06/19 02:29:44;;;;;;;13.52;9.80;;;486.90;2380.80;;;;;;4885268;29;20028;-71
2023/06/19 02:32:11;;;;;;;15.65;10.93;;;487.00;2380.80;;;;;;4881108;29;20379;-77
2023/06/19 02:34:36;;;;;;;17.45;10.82;;;486.90;2380.80;;;;;;4884134;29;20484;-70
2023/06/19 02:37:02;;;;;;;14.52;9.40;;;486.90;2380.80;;;;;;4886228;29;20064;-70
2023/06/19 02:39:29;;;;;;;16.30;9.80;;;486.90;2380.80;;;;;;4886131;29;20391;-71
2023/06/19 02:41:54;;;;;;;13.68;9.60;;;486.70;2380.80;;;;;;4882100;29;20033;-71
2023/06/19 02:44:20;;;;;;;13.05;10.32;;;486.70;2380.80;;;;;;4883643;29;20033;-74
2023/06/19 02:46:46;;;;;;;21.63;10.27;;;486.80;2380.80;;;;;;4884521;29;20025;-75
2023/06/19 02:49:11;;;;;;;15.68;9.63;;;486.80;2380.80;;;;;;4884017;29;20060;-73
2023/06/19 02:51:37;;;;;;;13.70;8.90;;;486.80;2380.80;;;;;;4880227;29;20428;-71
2023/06/19 02:54:03;;;;;;;15.13;9.48;;;486.80;2380.80;;;;;;4868317;29;20388;-74
2023/06/19 02:56:28;;;;;;;18.25;9.68;;;486.70;2380.80;;;;;;4867529;29;20065;-72
2023/06/19 02:58:54;;;;;;;20.50;10.73;;;486.60;2380.80;;;;;;4877323;29;20048;-71
2023/06/19 03:01:20;;;;;;;13.65;8.70;;;486.50;2380.80;;;;;;4891790;29;20499;-74
2023/06/19 03:03:46;;;;;;;16.42;9.38;;;486.40;2380.80;;;;;;4887774;29;20025;-71
2023/06/19 03:06:13;;;;;;;28.27;11.50;;;461.70;2380.80;;;;;;4881430;29;20020;-77
2023/06/19 03:08:39;;;;;;;15.32;10.68;;;461.50;2380.80;;;;;;4867643;29;20073;-71
2023/06/19 03:11:05;;;;;;;16.00;9.95;;;461.60;2380.80;;;;;;4886718;29;20029;-74
2023/06/19 03:13:50;;;;;;;17.65;10.35;;;461.50;2380.80;;;;;;4882653;29;20044;-77
2023/06/19 03:16:16;;;;;;;22.13;11.82;;;461.40;2380.80;;;;;;4882963;29;20029;-72
2023/06/19 03:18:44;;;;;;;13.82;9.32;;;461.40;2380.80;;;;;;4879198;29;20036;-71
2023/06/19 03:21:10;;;;;;;18.63;10.02;;;461.40;2380.80;;;;;;4884292;29;20172;-70
2023/06/19 03:23:36;;;;;;;14.55;10.48;;;461.40;2380.80;;;;;;4883867;29;20029;-71
2023/06/19 03:26:02;;;;;;;17.08;9.68;;;461.40;2380.80;;;;;;4884447;29;20044;-71
2023/06/19 03:28:28;;;;;;;16.45;9.50;;;461.40;2380.80;;;;;;4879811;29;20047;-73
2023/06/19 03:30:54;;;;;;;16.92;9.70;;;461.40;2380.80;;;;;;4886659;29;20028;-71
2023/06/19 03:33:20;;;;;;;13.02;9.02;;;461.50;2380.80;;;;;;4882267;29;20031;-71
2023/06/19 03:35:46;;;;;;;14.77;8.95;;;461.70;2380.80;;;;;;4882983;29;20033;-70
2023/06/19 03:38:11;;;;;;;18.13;10.02;;;486.40;2380.80;;;;;;4882170;29;20029;-71
2023/06/19 03:40:37;;;;;;;13.15;9.55;;;461.70;2380.80;;;;;;4885613;29;20516;-70
2023/06/19 03:43:03;;;;;;;17.00;10.07;;;461.70;2380.80;;;;;;4886934;29;20033;-71
2023/06/19 03:45:28;;;;;;;17.25;10.60;;;461.70;2380.80;;;;;;4891075;29;20112;-71
2023/06/19 03:47:54;;;;;;;18.55;10.82;;;461.70;2380.80;;;;;;4883501;29;20032;-71
2023/06/19 03:50:20;;;;;;;12.93;9.48;;;461.70;2380.80;;;;;;4882096;29;20044;-72
2023/06/19 03:52:45;;;;;;;17.40;10.30;;;461.60;2380.80;;;;;;4882784;29;20029;-71
2023/06/19 03:55:11;;;;;;;19.35;10.10;;;486.40;2380.80;;;;;;4880755;29;20100;-71
2023/06/19 03:57:37;;;;;;;20.67;10.15;;;486.40;2380.80;;;;;;4884888;29;20081;-72
2023/06/19 04:00:07;;;;;;;16.42;10.48;;;486.50;2380.80;;;;;;4884211;29;20044;-73
2023/06/19 04:02:36;;;;;;;16.58;10.90;;;486.60;2380.80;;;;;;4884692;29;20026;-70
2023/06/19 04:05:02;;;;;;;18.90;10.77;;;486.70;2380.80;;;;;;4863934;29;20415;-71
2023/06/19 04:07:28;;;;;;;23.60;10.77;;;486.70;2380.80;;;;;;4881507;29;20061;-71
2023/06/19 04:09:54;;;;;;;19.08;11.70;;;486.60;2380.80;;;;;;4882981;29;20049;-70
2023/06/19 04:12:20;;;;;;;17.80;10.38;;;486.70;2380.80;;;;;;4881534;29;20029;-71
2023/06/19 04:14:45;;;;;;;18.55;10.80;;;486.70;2380.80;;;;;;4879538;29;20056;-70
2023/06/19 04:17:11;;;;;;;15.55;10.30;;;486.90;2380.80;;;;;;4885848;29;20052;-71
2023/06/19 04:19:37;;;;;;;21.55;10.80;;;487.10;2380.80;;;;;;4864069;29;20096;-77
2023/06/19 04:22:03;;;;;;;17.60;10.73;;;487.20;2380.80;;;;;;4883285;29;20037;-73
2023/06/19 04:24:29;;;;;;;21.00;10.77;;;487.30;2380.80;;;;;;4882759;29;20052;-71
2023/06/19 04:26:54;;;;;;;15.85;10.80;;;512.00;2380.80;;;;;;4878733;29;20030;-71
2023/06/19 04:29:20;;;;;;;18.58;10.07;;;512.10;2380.80;;;;;;4883236;29;20412;-70
2023/06/19 04:31:49;;;;;;;15.43;10.73;;;512.20;2380.80;;;;;;4885423;29;20472;-70
2023/06/19 04:34:20;;;;;;;14.80;11.20;;;512.30;2380.80;;;;;;4882079;29;20029;-70
2023/06/19 04:36:47;;;;;;;19.95;11.82;;;512.30;2380.80;;;;;;4881963;29;20112;-72
2023/06/19 04:39:12;;;;;;;19.00;11.82;;;512.50;2380.80;;;;;;4879405;29;20069;-70
2023/06/19 04:41:38;;;;;;;16.80;11.63;;;512.60;2380.80;;;;;;4881773;29;20041;-73
2023/06/19 04:44:06;;;;;;;16.80;12.30;;;512.60;2380.80;;;;;;4883480;29;20032;-71
2023/06/19 04:46:32;;;;;;;19.52;12.73;;;512.80;2380.80;;;;;;4880626;29;20053;-71
2023/06/19 04:48:57;;;;;;;18.65;11.32;;;512.90;2380.80;;;;;;4883545;29;20480;-71
2023/06/19 04:51:23;;;;;;;20.83;12.50;;;512.90;2380.80;;;;;;4866580;29;20028;-71
2023/06/19 04:53:49;;;;;;;21.80;12.23;;;537.70;2406.40;;;;;;4884069;29;20052;-73
2023/06/19 04:56:15;;;;;;;25.15;12.93;;;537.80;2406.40;;;;;;4888380;29;20032;-71
2023/06/19 04:58:46;;;;;;;22.60;12.65;;;537.90;2406.40;;;;;;4891174;29;20032;-71
2023/06/19 05:01:15;;;;;;;18.05;12.13;;;538.00;2406.40;;;;;;4889098;29;20435;-71
2023/06/19 05:03:43;;;;;;;18.65;12.38;;;538.00;2406.40;;;;;;4882423;29;20021;-72
2023/06/19 05:06:09;;;;;;;18.77;12.43;;;538.00;2406.40;;;;;;4894562;29;20041;-74
2023/06/19 05:08:35;;;;;;;18.20;13.02;;;537.90;2406.40;;;;;;4884944;29;20021;-75
2023/06/19 05:11:00;;;;;;;19.30;12.48;;;537.90;2406.40;;;;;;4892152;29;20055;-73
2023/06/19 05:13:26;;;;;;;20.08;12.60;;;538.00;2406.40;;;;;;4887335;29;20053;-75
2023/06/19 05:15:52;;;;;;;18.77;12.45;;;538.10;2406.40;;;;;;4885908;29;20484;-75
2023/06/19 05:18:18;;;;;;;16.08;11.23;;;538.30;2406.40;;;;;;4887736;29;20029;-75
2023/06/19 05:20:44;;;;;;;15.00;11.02;;;538.40;2406.40;;;;;;4894213;29;20088;-73
2023/06/19 05:23:09;;;;;;;16.13;9.48;;;563.20;2432.00;;;;;;4897733;29;20040;-75
2023/06/19 05:25:35;;;;;;;16.58;10.20;;;563.30;2432.00;;;;;;4895359;29;20024;-75
2023/06/19 05:28:01;;;;;;;13.40;9.15;;;563.50;2432.00;;;;;;4885358;29;20112;-75
2023/06/19 05:30:26;;;;;;;14.38;9.85;;;563.60;2432.00;;;;;;4880554;29;20476;-75
2023/06/19 05:32:52;;;;;;;15.00;9.38;;;563.60;2432.00;;;;;;4887361;29;20105;-72
2023/06/19 05:35:18;;;;;;;20.77;10.85;;;563.80;2432.00;;;;;;4889296;29;20446;-73
2023/06/19 05:37:44;;;;;;;16.65;10.02;;;563.80;2432.00;;;;;;4887224;29;20024;-73
2023/06/19 05:40:10;;;;;;;16.42;10.20;;;563.80;2432.00;;;;;;4888480;29;20044;-73
2023/06/19 05:42:36;;;;;;;12.95;9.38;;;564.00;2432.00;;;;;;4885490;29;20100;-73
2023/06/19 05:45:03;;;;;;;13.63;9.73;;;564.10;2432.00;;;;;;4886119;29;20361;-73
2023/06/19 05:47:30;;;;;;;14.48;9.27;;;588.80;2432.00;;;;;;4890890;29;20017;-73
2023/06/19 05:49:56;;;;;;;16.20;9.18;;;588.80;2432.00;;;;;;4882360;29;20035;-73
2023/06/19 05:52:22;;;;;;;16.90;9.40;;;588.90;2432.00;;;;;;4888607;29;20028;-73
2023/06/19 05:54:48;;;;;;;16.42;9.77;;;589.00;2432.00;;;;;;4890051;29;20029;-73
2023/06/19 05:57:15;;;;;;;15.35;9.52;;;589.00;2432.00;;;;;;4885179;29;20438;-73
2023/06/19 05:59:42;;;;;;;14.30;8.38;;;589.00;2432.00;;;;;;4891414;29;20036;-73
2023/06/19 06:02:07;;;;;;;10.73;9.07;;;589.10;2432.00;;;;;;4893231;29;20028;-72
2023/06/19 06:04:36;;;;;;;13.85;9.13;;;589.20;2432.00;;;;;;4889628;29;20549;-74
2023/06/19 06:07:02;;;;;;;16.48;9.68;;;589.30;2432.00;;;;;;4893729;29;20039;-73
2023/06/19 06:09:28;;;;;;;11.27;8.80;;;589.40;2432.00;;;;;;4885373;29;20020;-77
2023/06/19 06:11:53;;;;;;;13.32;8.40;;;589.40;2432.00;;;;;;4889257;29;20123;-73
2023/06/19 06:14:19;;;;;;;13.32;8.32;;;589.60;2432.00;;;;;;4887846;29;20053;-73
2023/06/19 06:16:45;;;;;;;12.07;8.20;;;589.60;2432.00;;;;;;4883418;29;20084;-74
2023/06/19 06:19:11;;;;;;;12.93;7.82;;;589.70;2432.00;;;;;;4874014;29;20037;-74
2023/06/19 06:21:36;;;;;;;9.15;7.50;;;589.70;2432.00;;;;;;4890369;29;20530;-74
2023/06/19 06:24:03;;;;;;;12.60;7.78;;;614.40;2432.00;;;;;;4886499;29;20033;-72
2023/06/19 06:26:28;;;;;;;12.32;8.73;;;614.40;2432.00;;;;;;4888346;29;20026;-75
2023/06/19 06:28:55;;;;;;;13.10;8.05;;;614.50;2432.00;;;;;;4883373;29;20044;-74
2023/06/19 06:31:23;;;;;;;12.20;7.93;;;614.50;2432.00;;;;;;4883548;29;20035;-73
2023/06/19 06:33:49;;;;;;;13.52;8.70;;;614.60;2432.00;;;;;;4890981;29;20054;-74
2023/06/19 06:36:15;;;;;;;12.98;7.97;;;614.70;2432.00;;;;;;4885199;29;20124;-73
2023/06/19 06:38:41;;;;;;;14.35;10.07;;;614.80;2432.00;;;;;;4882402;29;20033;-74
2023/06/19 06:41:07;;;;;;;13.52;8.93;;;614.90;2432.00;;;;;;4890962;29;20703;-73
2023/06/19 06:43:33;;;;;;;19.75;9.75;;;614.80;2432.00;;;;;;4886729;29;20021;-75
2023/06/19 06:45:59;;;;;;;10.95;7.70;;;615.00;2432.00;;;;;;4889972;29;20039;-74
2023/06/19 06:48:25;;;;;;;11.85;7.57;;;614.80;2432.00;;;;;;4886994;29;20025;-73
2023/06/19 06:50:58;;;;;;;11.95;8.25;;;615.10;2432.00;;;;;;4890435;29;20103;-72
2023/06/19 06:53:25;;;;;;;13.55;7.38;;;615.20;2432.00;;;;;;4895668;29;20032;-73
2023/06/19 06:55:51;;;;;;;11.55;8.20;;;615.30;2432.00;;;;;;4890543;29;20113;-73
2023/06/19 06:58:18;;;;;;;13.23;8.85;;;615.30;2432.00;;;;;;4882286;29;20037;-74
2023/06/19 07:00:44;;;;;;;17.10;7.88;;;640.00;2432.00;;;;;;4895821;29;20036;-72
2023/06/19 07:03:10;;;;;;;11.55;8.25;;;640.10;2432.00;;;;;;4890844;29;20025;-73
2023/06/19 07:05:36;;;;;;;14.95;8.43;;;640.10;2432.00;;;;;;4893594;29;20112;-73
2023/06/19 07:08:03;;;;;;;10.48;7.80;;;640.20;2432.00;;;;;;4885156;29;20104;-73
2023/06/19 07:10:29;;;;;;;9.35;7.57;;;640.40;2432.00;;;;;;4884135;29;20033;-74
2023/06/19 07:12:55;;;;;;;9.32;7.65;;;640.30;2432.00;;;;;;4889962;29;20071;-73
2023/06/19 07:15:21;;;;;;;10.85;8.13;;;640.40;2432.00;;;;;;4882129;29;20064;-73
2023/06/19 07:17:47;;;;;;;11.88;7.22;;;640.50;2432.00;;;;;;4884167;29;20033;-72
2023/06/19 07:20:13;;;;;;;13.50;8.00;;;640.40;2432.00;;;;;;4885623;29;20047;-74
2023/06/19 07:22:39;;;;;;;11.23;7.38;;;640.50;2432.00;;;;;;4898063;29;20048;-72
2023/06/19 07:25:05;;;;;;;14.98;8.60;;;640.60;2432.00;;;;;;4889621;29;20039;-73
2023/06/19 07:27:31;;;;;;;10.02;7.13;;;640.70;2432.00;;;;;;4882044;29;20476;-74
2023/06/19 07:29:56;;;;;;;8.70;6.70;;;640.70;2432.00;;;;;;4884495;29;20039;-73
2023/06/19 07:32:22;;;;;;;11.75;8.23;;;640.90;2432.00;;;;;;4878598;29;20088;-73
2023/06/19 07:34:48;;;;;;;11.23;7.15;;;640.70;2432.00;;;;;;4890158;29;20039;-74
2023/06/19 07:37:17;;;;;;;13.70;8.00;;;640.70;2432.00;;;;;;4885624;29;20054;-75
2023/06/19 07:39:52;;;;;;;9.90;7.05;;;640.70;2432.00;;;;;;4888419;29;20079;-74
2023/06/19 07:42:19;;;;;;;10.32;8.32;;;640.70;2432.00;;;;;;4889088;29;20064;-74
2023/06/19 07:44:45;;;;;;;10.05;7.60;;;640.90;2432.00;;;;;;4889651;29;20040;-72
2023/06/19 07:47:11;;;;;;;10.55;6.68;;;640.90;2432.00;;;;;;4887749;29;20021;-74
2023/06/19 07:49:36;;;;;;;9.23;7.50;;;665.70;2432.00;;;;;;4889158;29;20425;-74
2023/06/19 07:52:03;;;;;;;14.65;7.93;;;665.70;2432.00;;;;;;4888841;29;20033;-74
2023/06/19 07:54:29;;;;;;;9.13;7.15;;;666.00;2432.00;;;;;;4890900;29;20490;-73
2023/06/19 07:56:54;;;;;;;9.65;6.93;;;666.10;2432.00;;;;;;4885808;29;20036;-73
2023/06/19 07:59:20;;;;;;;12.75;7.35;;;666.20;2355.20;;;;;;4868655;29;20078;-75
2023/06/19 08:01:46;;;;;;;15.88;7.55;;;666.20;2380.80;;;;;;4886956;29;20060;-73
2023/06/19 08:04:12;;;;;;;8.93;6.60;;;666.50;2432.00;;;;;;4887558;29;20031;-75
2023/06/19 08:06:37;;;;;;;11.70;6.82;;;691.20;2176.00;;;;;;4892075;29;20487;-71
2023/06/19 08:09:03;;;;;;;12.75;6.40;;;691.40;2227.20;;;;;;4890367;29;20024;-72
2023/06/19 08:11:29;;;;;;;15.85;6.07;;;691.40;2048.00;;;;;;4884062;29;20033;-71
2023/06/19 08:13:55;;;;;;;9.90;6.38;;;691.50;1894.40;;;;;;4892102;29;20135;-71
2023/06/19 08:16:21;;;;;;;10.73;6.65;;;691.40;1868.80;;;;;;4889365;29;20061;-71
2023/06/19 08:18:47;;;;;;;8.63;5.65;;;691.40;1920.00;;;;;;4883800;29;20071;-73
2023/06/19 08:21:13;;;;;;;8.10;6.30;;;691.20;1971.20;;;;;;4889360;29;20049;-73
2023/06/19 08:23:40;;;;;;;10.05;6.30;;;691.40;2048.00;;;;;;4884508;29;20167;-73
2023/06/19 08:26:07;;;;;;;15.13;6.82;;;691.40;1868.80;;;;;;4888859;29;20064;-70
2023/06/19 08:28:33;;;;;;;11.60;6.72;;;691.50;1945.60;;;;;;4886574;29;20187;-71
2023/06/19 08:30:59;;;;;;;9.05;6.28;;;691.50;1920.00;;;;;;4888492;29;20402;-70
2023/06/19 08:33:25;;;;;;;8.90;6.15;;;691.60;1868.80;;;;;;4888365;29;20021;-73
2023/06/19 08:35:51;;;;;;;9.55;6.60;;;691.70;1868.80;;;;;;4882937;29;20033;-72
2023/06/19 08:38:16;;;;;;;9.45;6.03;;;691.70;1740.80;;;;;;4879987;29;20044;-73
2023/06/19 08:40:43;;;;;;;9.60;6.40;;;691.80;1817.60;;;;;;4884761;29;20484;-73
2023/06/19 08:43:08;;;;;;;11.98;6.78;;;691.80;1766.40;;;;;;4886021;29;20021;-72
2023/06/19 08:45:34;;;;;;;9.25;6.65;;;691.80;1792.00;;;;;;4887657;29;20040;-70
2023/06/19 08:48:04;;;;;;;11.18;6.65;;;691.90;1792.00;;;;;;4894534;29;20040;-74
2023/06/19 08:50:32;;;;;;;14.88;7.28;;;692.00;1843.20;;;;;;4882950;29;20436;-73
2023/06/19 08:52:58;;;;;;;22.52;7.60;;;691.90;1868.80;;;;;;4894847;29;20020;-71
2023/06/19 08:55:24;;;;;;;24.02;12.27;;;692.00;1868.80;;;;;;4887087;29;20029;-71
2023/06/19 08:57:51;;;;;;;14.05;8.50;;;716.80;1715.20;;;;;;4871632;29;20178;-72
2023/06/19 09:00:28;;;;;;;9.02;7.00;;;716.90;1766.40;;;;;;4875230;29;20044;-75
2023/06/19 09:03:02;;;;;;;10.02;5.93;;;716.90;1715.20;;;;;;4893237;29;20033;-73
2023/06/19 09:05:28;;;;;;;8.35;6.47;;;716.90;1766.40;;;;;;4872004;29;20402;-71
2023/06/19 09:08:02;;;;;;;7.93;5.72;;;717.10;1715.20;;;;;;4878249;29;20044;-73
2023/06/19 09:10:28;;;;;;;10.93;6.20;;;716.90;1664.00;;;;;;4888794;29;20033;-72
2023/06/19 09:13:03;;;;;;;7.68;5.70;;;717.10;1664.00;;;;;;4886617;29;20488;-75
2023/06/19 09:15:31;;;;;;;7.80;5.68;;;717.20;1561.60;;;;;;4886989;29;20041;-74
2023/06/19 09:18:08;;;;;;;9.35;5.65;;;717.20;1536.00;;;;;;4885776;29;20101;-72
2023/06/19 09:20:43;;;;;;;11.82;6.68;;;717.20;1510.40;;;;;;4878996;29;20491;-72
2023/06/19 09:23:11;;;;;;;7.80;6.18;;;717.40;1484.80;;;;;;4890815;29;20100;-73
2023/06/19 09:25:50;;;;;;;10.18;6.47;;;717.50;1587.20;;;;;;4891728;29;20578;-74
2023/06/19 09:28:20;;;;;;;8.35;6.30;;;717.50;1612.80;;;;;;4888866;29;20025;-72
2023/06/19 09:31:05;;;;;;;8.07;6.10;;;717.60;1612.80;;;;;;4876969;29;20051;-76
2023/06/19 09:33:32;;;;;;;8.38;6.25;;;717.70;1664.00;;;;;;4884802;29;20025;-72
2023/06/19 09:35:59;;;;;;;10.07;6.75;;;717.70;1612.80;;;;;;4895202;29;20049;-72
2023/06/19 09:38:28;;;;;;;7.82;5.30;;;742.40;1612.80;;;;;;4889781;29;20062;-72
2023/06/19 09:40:56;;;;;;;11.25;5.90;;;742.40;1587.20;;;;;;4890494;29;20047;-72
2023/06/19 09:43:46;;;;;;;9.00;5.80;;;742.60;1612.80;;;;;;4872536;29;20028;-72
2023/06/19 09:46:14;;;;;;;10.00;6.60;;;742.70;1612.80;;;;;;4894131;29;20085;-72
2023/06/19 09:48:43;;;;;;;9.75;6.95;;;742.80;1561.60;;;;;;4890140;29;20016;-72
2023/06/19 09:51:20;;;;;;;10.25;7.00;;;742.90;1587.20;;;;;;4882730;29;20025;-72
2023/06/19 09:53:47;;;;;;;11.00;6.40;;;742.90;1612.80;;;;;;4891548;29;20020;-73
2023/06/19 09:56:14;;;;;;;7.55;6.22;;;743.10;1561.60;;;;;;4887777;29;20024;-72
2023/06/19 09:58:43;;;;;;;9.13;6.88;;;743.30;1510.40;;;;;;4891204;29;20040;-72
2023/06/19 10:01:09;;;;;;;7.68;5.80;;;768.00;1536.00;;;;;;4891531;29;20044;-71
2023/06/19 10:03:36;;;;;;;6.97;5.47;;;768.10;1459.20;;;;;;4892184;29;20112;-71
2023/06/19 10:06:03;;;;;;;10.25;5.82;;;768.10;1433.60;;;;;;4887979;29;20044;-74
2023/06/19 10:08:40;;;;;;;8.88;6.05;;;768.30;1433.60;;;;;;4885902;29;20025;-72
2023/06/19 10:11:06;;;;;;;9.75;6.32;;;768.30;1459.20;;;;;;4883399;29;20551;-71
2023/06/19 10:13:38;;;;;;;8.45;5.75;;;768.40;1433.60;;;;;;4883786;29;20049;-71
2023/06/19 10:16:04;;;;;;;12.00;7.07;;;768.50;1433.60;;;;;;4887070;29;20037;-71
2023/06/19 10:18:32;;;;;;;11.48;6.50;;;768.60;1408.00;;;;;;4891469;29;20058;-75
2023/06/19 10:20:58;;;;;;;8.50;6.65;;;768.60;1459.20;;;;;;4881179;29;20079;-72
2023/06/19 10:23:27;;;;;;;9.18;6.60;;;768.80;1408.00;;;;;;4891506;29;20053;-70
2023/06/19 10:25:53;;;;;;;12.93;5.85;;;768.90;1356.80;;;;;;4891057;29;20032;-71
2023/06/19 10:28:29;;;;;;;10.32;5.80;;;793.70;1408.00;;;;;;4888842;29;20028;-72
2023/06/19 10:31:06;;;;;;;7.72;5.72;;;793.70;1382.40;;;;;;4884571;29;20153;-71
2023/06/19 10:33:39;;;;;;;7.30;5.43;;;793.70;1382.40;;;;;;4883847;29;20348;-70
2023/06/19 10:36:17;;;;;;;8.13;5.65;;;793.80;1356.80;;;;;;4892060;29;20029;-70
2023/06/19 10:38:47;;;;;;;9.90;5.93;;;794.00;1331.20;;;;;;4883289;29;20479;-72
2023/06/19 10:41:22;;;;;;;7.80;5.70;;;794.00;1331.20;;;;;;4886835;29;20041;-70
2023/06/19 10:44:02;;;;;;;8.25;5.70;;;794.00;1305.60;;;;;;4888820;29;20498;-71
2023/06/19 10:46:38;;;;;;;8.45;4.85;;;794.20;1280.00;;;;;;4885802;29;20052;-71
2023/06/19 10:49:07;;;;;;;8.48;5.90;;;794.20;1305.60;;;;;;4886427;29;20029;-71
2023/06/19 10:51:40;;;;;;;9.07;5.93;;;794.20;1254.40;;;;;;4881497;29;20024;-70
2023/06/19 10:54:06;;;;;;;12.13;6.00;;;794.30;1228.80;;;;;;4891879;29;20100;-70
2023/06/19 10:56:33;;;;;;;9.18;5.38;;;794.20;1305.60;;;;;;4886534;29;20538;-71
2023/06/19 10:59:05;;;;;;;8.65;6.40;;;794.30;1280.00;;;;;;4891119;29;20022;-71
2023/06/19 11:01:37;;;;;;;8.63;5.40;;;794.50;1280.00;;;;;;4889707;29;20120;-70
2023/06/19 11:04:08;;;;;;;8.98;6.13;;;819.20;1254.40;;;;;;4890251;29;20115;-70
2023/06/19 11:06:34;;;;;;;8.15;5.78;;;819.20;1228.80;;;;;;4886071;29;20029;-70
2023/06/19 11:09:01;;;;;;;12.45;5.55;;;819.20;1254.40;;;;;;4892245;29;20096;-70
2023/06/19 11:11:46;;;;;;;8.20;5.65;;;819.30;1254.40;;;;;;4888169;29;20020;-70
2023/06/19 11:14:14;;;;;;;10.18;5.60;;;819.30;1228.80;;;;;;4887868;29;20052;-71
2023/06/19 11:16:45;;;;;;;7.50;5.88;;;794.50;1254.40;;;;;;4882708;29;20040;-70
2023/06/19 11:19:17;;;;;;;8.52;5.25;;;819.30;1203.20;;;;;;4884129;29;20036;-70
2023/06/19 11:21:46;;;;;;;9.10;5.32;;;819.30;1203.20;;;;;;4884434;29;20041;-70
2023/06/19 11:24:14;;;;;;;8.68;6.55;;;819.30;1228.80;;;;;;4878996;29;20040;-71
2023/06/19 11:26:50;;;;;;;6.57;5.45;;;819.50;1203.20;;;;;;4889403;29;20045;-71
2023/06/19 11:29:22;;;;;;;10.00;5.47;;;819.60;1203.20;;;;;;4881543;29;20028;-72
2023/06/19 11:31:49;;;;;;;7.47;5.35;;;819.60;1228.80;;;;;;4887666;29;20111;-72
2023/06/19 11:34:15;;;;;;;8.07;5.85;;;819.80;1152.00;;;;;;4887711;29;20036;-72
2023/06/19 11:36:43;;;;;;;7.60;5.70;;;819.80;1203.20;;;;;;4882732;29;20036;-71
2023/06/19 11:39:13;;;;;;;8.65;5.25;;;819.60;1177.60;;;;;;4888987;29;20112;-71
2023/06/19 11:41:39;;;;;;;8.43;5.88;;;819.80;1177.60;;;;;;4887110;29;20498;-70
2023/06/19 11:44:07;;;;;;;8.88;6.32;;;819.80;1203.20;;;;;;4883288;29;20048;-70
2023/06/19 11:46:34;;;;;;;8.48;5.90;;;819.60;1177.60;;;;;;4889656;29;20099;-70
2023/06/19 11:49:09;;;;;;;6.10;5.18;;;819.60;1152.00;;;;;;4882292;29;20073;-70
2023/06/19 11:51:35;;;;;;;7.90;5.25;;;819.80;1152.00;;;;;;4886909;29;20033;-71
2023/06/19 11:54:02;;;;;;;9.27;5.78;;;819.80;1152.00;;;;;;4889323;29;20539;-71
2023/06/19 11:56:29;;;;;;;12.43;6.32;;;819.60;1203.20;;;;;;4884372;29;20094;-70
2023/06/19 11:58:55;;;;;;;12.35;5.97;;;819.80;1177.60;;;;;;4882487;29;20506;-69
2023/06/19 12:01:20;;;;;;;9.60;5.53;;;819.80;1152.00;;;;;;4894412;29;20116;-70
2023/06/19 12:03:46;;;;;;;7.32;5.70;;;820.00;1177.60;;;;;;4889833;29;20103;-71
2023/06/19 12:06:12;;;;;;;12.82;6.05;;;819.90;1152.00;;;;;;4887798;29;20033;-70
2023/06/19 12:08:37;;;;;;;8.57;6.20;;;820.00;1177.60;;;;;;4881988;29;20035;-70
2023/06/19 12:11:07;;;;;;;8.75;5.85;;;844.90;1228.80;;;;;;4882104;29;20033;-70